To NAV CANADA Home Page Login to a new session Search on AWWS site Feedback and Comments Disclaimer Vers la page française équivalente Tips FAQ What's new on the site To the Forecasts and Observations / NOTAM section To "File a Flight Plan" website Publications and other links Update of the User's profile FIC Telephone Numbers My Weather Data Folder Route Weather Data Regional Weather Data Local Weather Data To the Forecasts and Observations / NOTAM section
Request Generated 08/23/2016 at 21:03:33 UTC . Weather information available at that time is displayed.

METAR/TAF

AUPALUK/QC    

METAR CYLA 232100Z 20018G24KT 15SM VCSH FEW015 BKN047 15/09 A2951 RMK
CF1SC6 LAST STFD OBS/NXT 241200 UTC SLP995 DENSITY ALT 500FT=
METAR CYLA 232000Z 20015G23KT 15SM 16/08 A2952 RMK SLP000 DENSITY ALT
700FT=
SPECI CYLA 231956Z 21018KT 15SM BKN048 16/08 A2952 RMK SC7 SLP001
DENSITY ALT 700FT=
SPECI CYLA 231916Z 20018KT 15SM -SHRA BKN051 16/07 A2953 RMK SC7
SLP004 DENSITY ALT 600FT=
METAR CYLA 231900Z 20017G23KT 15SM VCSH BKN051 BKN230 15/07 A2953 RMK
SC6CS1 SLP004 DENSITY ALT 600FT=

CYLA - No TAF is issued for this station

Your time UTC time
Weather data provided by Environment Canada and NAV CANADA